NCAR-RAP Real-Time Weather Data

Output produced by METARs form (21 July 2019  13:46 UTC)
found at http://weather.rap.ucar.edu/surface/
 
KDCA 211252Z 28004KT 10SM SCT170 32/22 A2992 RMK AO2 SLP129 T03170222
KDCA 211152Z 27004KT 10SM FEW240 30/22 A2991 RMK AO2 SLP128 T03000222 10300 20272 53020
KDCA 211052Z 21006KT 10SM BKN240 28/22 A2989 RMK AO2 SLP120 T02780217
KDCA 210952Z 20006KT 10SM FEW140 SCT250 28/22 A2987 RMK AO2 SLP113 T02780222
KDCA 210852Z 00000KT 10SM FEW140 BKN250 29/23 A2985 RMK AO2 SLP108 T02890228 58009
KDCA 210752Z 09003KT 10SM FEW140 SCT250 29/23 A2986 RMK AO2 SLP111 T02940233
KDCA 210652Z 00000KT 10SM FEW140 SCT250 29/23 A2988 RMK AO2 SLP117 T02890233
KDCA 210552Z 30004KT 10SM FEW140 SCT250 30/22 A2988 RMK AO2 SLP118 T03000222 10350 20289 51005
KDCA 210452Z 32005KT 10SM BKN140 OVC250 31/21 A2988 RMK AO2 SLP116 T03110206 403610272
KDCA 210352Z 30004KT 10SM BKN140 OVC250 31/19 A2988 RMK AO2 SLP115 T03110194
KDCA 210252Z 26006KT 10SM SCT065 31/21 A2987 RMK AO2 WSHFT 0139 SLP113 LTG DSNT N CB DSNT N MOV E T03110206 50004
KDCA 210159Z 32009KT 10SM SCT065 32/19 A2988 RMK AO2 WSHFT 0139 LTG DSNT N CB DSNT N MOV E T03220194
KDCA 210152Z 34014G24KT 10SM SCT065 33/22 A2988 RMK AO2 WSHFT 0138 SLP118 LTG DSNT N CB DSNT N MOV E T03280217
KDCA 210052Z 24005KT 10SM SCT220 34/22 A2986 RMK AO2 SLP109 T03390217
KDCA 202352Z 25008KT 10SM SCT210 35/22 A2985 RMK AO2 SLP109 T03500217 10361 20294 50002
KDCA 202252Z 25012KT 10SM FEW060 SCT250 36/22 A2985 RMK AO2 SLP110 T03560217
KDCA 202152Z 23013G20KT 10SM SCT060 SCT250 36/22 A2985 RMK AO2 SLP108 T03560222
KDCA 202052Z 23007KT 10SM SCT060 SCT250 36/23 A2985 RMK AO2 SLP107 T03560233 56010
KDCA 201952Z 19007KT 10SM SCT055 SCT250 34/23 A2985 RMK AO2 SLP109 T03440233
KDCA 201852Z 18011KT 10SM SCT055 SCT250 35/25 A2986 RMK AO2 SLP111 T03500250
KDCA 201752Z 17006KT 10SM BKN055 BKN250 34/23 A2988 RMK AO2 SLP117 T03390233 10361 20294 58026
KDCA 201652Z VRB05KT 10SM SCT046 SCT075 BKN250 35/24 A2990 RMK AO2 SLP126 T03500244
KDCA 201552Z 32008G15KT 10SM FEW025 BKN250 34/24 A2994 RMK AO2 SLP138 T03440239
KDCA 201452Z 34010KT 10SM FEW200 BKN250 34/24 A2996 RMK AO2 SLP143 T03390244 53005
KDCA 201352Z 33009KT 10SM FEW190 SCT250 33/23 A2995 RMK AO2 SLP140 T03280233
KDCA 201252Z 25004KT 10SM FEW180 SCT250 32/23 A2994 RMK AO2 SLP138 T03170233
KDCA 201152Z 19005KT 10SM FEW170 SCT250 29/23 A2994 RMK AO2 SLP138 T02940233 10294 20272 50004
KDCA 201052Z 23005KT 10SM FEW160 SCT250 28/23 A2994 RMK AO2 SLP139 T02780228
KDCA 200952Z 24003KT 10SM FEW160 SCT250 27/23 A2995 RMK AO2 SLP141 T02720228
KDCA 200852Z 20003KT 10SM SCT250 28/23 A2993 RMK AO2 SLP134 T02780233 53007
KDCA 200752Z 22004KT 10SM SCT250 29/23 A2991 RMK AO2 SLP130 T02890228
KDCA 200652Z 20004KT 10SM SCT250 28/23 A2991 RMK AO2 SLP128 T02830228
KDCA 200552Z 20005KT 10SM SCT250 28/23 A2991 RMK AO2 SLP127 T02830233 10339 20283 55006
KDCA 200452Z 18006KT 10SM FEW065 SCT250 29/25 A2991 RMK AO2 SLP127 T02940250 403560261
KDCA 200352Z 18006KT 10SM FEW065 SCT250 30/23 A2991 RMK AO2 SLP127 T03000228
KDCA 200252Z 00000KT 10SM SCT065 31/25 A2993 RMK AO2 SLP134 T03060250 51011
KDCA 200152Z 20004KT 10SM FEW080 32/22 A2992 RMK AO2 SLP132 T03170222
KDCA 200052Z 22006KT 10SM FEW070 33/22 A2991 RMK AO2 SLP128 T03280217
KDCA 192352Z 22008KT 10SM FEW070 33/22 A2989 RMK AO2 SLP123 T03330222 10356 20328 55004
KDCA 192252Z 21010KT 10SM FEW070 34/22 A2989 RMK AO2 SLP120 T03440222
KDCA 192152Z 20011KT 10SM FEW060 35/23 A2989 RMK AO2 SLP120 T03500228
KDCA 192052Z 21012KT 10SM SCT060 35/22 A2991 RMK AO2 SLP127 T03500222 56013
KDCA 191952Z 20011KT 10SM SCT060 34/24 A2992 RMK AO2 SLP130 T03390239
KDCA 191852Z 17011KT 10SM SCT060 34/24 A2993 RMK AO2 SLP134 T03390244
KDCA 191752Z 04004KT 10SM SCT050 35/23 A2994 RMK AO2 SLP140 T03500233 10350 20289 58009
KDCA 191652Z 01010KT 10SM FEW045 34/23 A2996 RMK AO2 SLP145 T03390233
KDCA 191552Z 02008KT 10SM FEW045 33/24 A2997 RMK AO2 SLP147 T03330239
KDCA 191452Z 34009KT 10SM FEW045 32/23 A2997 RMK AO2 SLP149 T03220233 51009
KDCA 191352Z 33008KT 10SM CLR 32/22 A2997 RMK AO2 SLP148 T03170222
KDCA 191252Z 33009KT 10SM FEW250 31/22 A2996 RMK AO2 SLP145 T03060222
KDCA 191152Z 33005KT 10SM FEW250 29/23 A2994 RMK AO2 SLP139 T02890228 10289 20261 51010
KDCA 191052Z 32006KT 10SM FEW250 27/22 A2994 RMK AO2 SLP137 T02720217
KDCA 190952Z 00000KT 10SM FEW250 27/23 A2993 RMK AO2 SLP133 T02670228
KDCA 190852Z 00000KT 10SM CLR 26/24 A2991 RMK AO2 SLP129 T02610239 53001
KDCA 190752Z 22003KT 10SM CLR 27/24 A2991 RMK AO2 SLP127 T02670239
KDCA 190652Z 20005KT 10SM CLR 27/24 A2991 RMK AO2 SLP129 T02720244
KDCA 190552Z 22003KT 10SM CLR 27/24 A2991 RMK AO2 SLP128 T02720239 10317 20272 53005
KDCA 190452Z 21005KT 10SM FEW250 28/24 A2991 RMK AO2 SLP127 T02780239 403390256
KDCA 190352Z 21003KT 10SM FEW250 28/24 A2989 RMK AO2 SLP122 T02830244
KDCA 190252Z 17006KT 10SM SCT250 29/24 A2989 RMK AO2 SLP122 T02890244 53008
KDCA 190152Z 28003KT 10SM FEW250 31/22 A2988 RMK AO2 LTG DSNT SE TSB15E30 SLP118 T03110217